createdAt,value
2018-11-03T00:00:51.034Z,98289.97
2018-11-03T00:03:19.112Z,98286.59
2018-11-03T00:05:47.181Z,98290.87
2018-11-03T00:08:15.258Z,98298.66
2018-11-03T00:10:43.333Z,98295.70
2018-11-03T00:13:11.450Z,98296.63
2018-11-03T00:15:39.585Z,98293.33
2018-11-03T00:18:08.473Z,98280.86
2018-11-03T00:20:36.668Z,98279.45
2018-11-03T00:23:04.849Z,98272.94
2018-11-03T00:25:32.968Z,98270.89
2018-11-03T00:28:01.167Z,98266.73
2018-11-03T00:30:29.349Z,98268.91
2018-11-03T00:32:57.485Z,98263.56
2018-11-03T00:35:25.590Z,98270.45
2018-11-03T00:37:53.668Z,98268.97
2018-11-03T00:40:21.787Z,98269.91
2018-11-03T00:42:50.029Z,98258.72
2018-11-03T00:45:18.081Z,98265.05
2018-11-03T00:47:46.178Z,98273.16
2018-11-03T00:50:15.588Z,98266.41
2018-11-03T00:52:43.798Z,98267.41
2018-11-03T00:55:12.723Z,98263.39
2018-11-03T00:57:41.404Z,98250.58
2018-11-03T01:00:17.362Z,98249.39
2018-11-03T01:02:46.753Z,98241.85
2018-11-03T01:05:15.159Z,98240.45
2018-11-03T01:07:43.752Z,98241.27
2018-11-03T01:10:12.321Z,98244.80
2018-11-03T01:12:41.120Z,98240.51
2018-11-03T01:15:11.668Z,98243.96
2018-11-03T01:17:39.793Z,98251.80
2018-11-03T01:20:09.770Z,98253.76
2018-11-03T01:22:37.941Z,98254.13
2018-11-03T01:25:06.481Z,98257.58
2018-11-03T01:27:34.561Z,98261.74
2018-11-03T01:30:02.648Z,98260.94
2018-11-03T01:32:30.867Z,98266.62
2018-11-03T01:34:58.913Z,98257.74
2018-11-03T01:37:27.082Z,98267.83
2018-11-03T01:39:55.343Z,98275.16
2018-11-03T01:42:23.424Z,98271.89
2018-11-03T01:44:51.509Z,98275.84
2018-11-03T01:47:19.593Z,98271.27
2018-11-03T01:49:47.686Z,98269.65
2018-11-03T01:52:15.792Z,98277.73
2018-11-03T01:54:43.865Z,98274.72
2018-11-03T01:57:11.937Z,98280.31
2018-11-03T01:59:40.206Z,98283.72
2018-11-03T02:02:08.278Z,98279.91
2018-11-03T02:04:36.383Z,98285.34
2018-11-03T02:07:04.759Z,98285.34
2018-11-03T02:09:32.819Z,98284.48
2018-11-03T02:12:00.930Z,98279.49
2018-11-03T02:14:29.034Z,98285.04
2018-11-03T02:16:57.089Z,98284.61
2018-11-03T02:19:27.683Z,98284.25
2018-11-03T02:21:55.827Z,98277.55
2018-11-03T02:24:23.904Z,98269.47
2018-11-03T02:26:52.136Z,98271.95
2018-11-03T02:29:20.198Z,98271.64
2018-11-03T02:31:48.341Z,98264.11
2018-11-03T02:34:16.448Z,98270.82
2018-11-03T02:36:44.557Z,98268.33
2018-11-03T02:39:12.692Z,98270.08
2018-11-03T02:41:40.801Z,98271.28
2018-11-03T02:44:08.878Z,98270.39
2018-11-03T02:46:36.961Z,98270.03
2018-11-03T02:49:06.097Z,98265.73
2018-11-03T02:51:34.198Z,98270.02
2018-11-03T02:54:02.264Z,98265.80
2018-11-03T02:56:30.361Z,98262.14
2018-11-03T02:58:58.432Z,98254.95
2018-11-03T03:01:26.521Z,98249.94
2018-11-03T03:03:54.613Z,98252.42
2018-11-03T03:06:22.702Z,98248.19
2018-11-03T03:08:50.804Z,98245.67
2018-11-03T03:11:18.901Z,98243.06
2018-11-03T03:13:47.287Z,98250.23
2018-11-03T03:16:15.444Z,98250.30
2018-11-03T03:18:43.698Z,98252.41
2018-11-03T03:21:11.794Z,98252.53
2018-11-03T03:23:39.920Z,98250.73
2018-11-03T03:26:08.758Z,98255.80
2018-11-03T03:28:36.885Z,98266.78
2018-11-03T03:31:05.489Z,98271.42
2018-11-03T03:33:33.620Z,98268.81
2018-11-03T03:36:01.713Z,98271.23
2018-11-03T03:38:29.785Z,98270.08
2018-11-03T03:40:57.954Z,98267.97
2018-11-03T03:43:26.029Z,98270.82
2018-11-03T03:45:54.126Z,98266.95
2018-11-03T03:48:22.211Z,98266.94
2018-11-03T03:50:50.291Z,98261.39
2018-11-03T03:53:18.504Z,98269.47
2018-11-03T03:55:46.628Z,98276.23
2018-11-03T03:58:14.708Z,98282.94
2018-11-03T04:00:42.765Z,98279.13
2018-11-03T04:03:10.855Z,98278.77
2018-11-03T04:05:38.958Z,98283.66
2018-11-03T04:08:07.061Z,98275.73
2018-11-03T04:10:35.161Z,98281.53
2018-11-03T04:13:03.237Z,98279.00
2018-11-03T04:15:31.324Z,98284.98
2018-11-03T04:17:59.427Z,98282.22
2018-11-03T04:20:27.615Z,98285.58
2018-11-03T04:22:55.697Z,98282.75
2018-11-03T04:25:23.843Z,98286.91
2018-11-03T04:27:51.954Z,98275.75
2018-11-03T04:30:20.061Z,98273.70
2018-11-03T04:32:48.142Z,98279.18
2018-11-03T04:35:16.218Z,98273.81
2018-11-03T04:37:44.306Z,98272.61
2018-11-03T04:40:13.225Z,98273.41
2018-11-03T04:42:41.860Z,98275.03
2018-11-03T04:45:10.881Z,98274.62
2018-11-03T04:47:38.998Z,98279.01
2018-11-03T04:50:07.837Z,98280.66
2018-11-03T04:52:35.929Z,98290.86
2018-11-03T04:55:04.640Z,98284.59
2018-11-03T04:57:32.692Z,98282.40
2018-11-03T05:00:00.788Z,98289.20
2018-11-03T05:02:28.892Z,98279.22
2018-11-03T05:04:56.973Z,98279.56
2018-11-03T05:07:25.064Z,98275.72
2018-11-03T05:09:53.252Z,98290.12
2018-11-03T05:12:21.306Z,98284.70
2018-11-03T05:14:49.380Z,98281.02
2018-11-03T05:17:17.489Z,98281.44
2018-11-03T05:19:45.598Z,98271.59
2018-11-03T05:22:13.678Z,98271.85
2018-11-03T05:24:41.741Z,98265.81
2018-11-03T05:27:09.831Z,98269.69
2018-11-03T05:29:37.982Z,98265.38
2018-11-03T05:32:06.094Z,98270.44
2018-11-03T05:34:34.205Z,98276.80
2018-11-03T05:37:02.308Z,98275.21
2018-11-03T05:39:30.539Z,98283.55
2018-11-03T05:41:58.601Z,98281.84
2018-11-03T05:44:26.696Z,98283.23
2018-11-03T05:46:54.756Z,98280.59
2018-11-03T05:49:22.830Z,98280.59
2018-11-03T05:51:50.908Z,98279.73
2018-11-03T05:54:19.020Z,98272.14
2018-11-03T05:56:47.109Z,98275.45
2018-11-03T05:59:15.216Z,98275.08
2018-11-03T06:01:43.337Z,98280.72
2018-11-03T06:04:11.416Z,98279.01
2018-11-03T06:06:39.548Z,98284.71
2018-11-03T06:09:08.685Z,98278.98
2018-11-03T06:11:36.768Z,98292.61
2018-11-03T06:14:04.882Z,98283.84
2018-11-03T06:16:32.975Z,98275.34
2018-11-03T06:19:01.048Z,98273.53
2018-11-03T06:21:29.156Z,98272.28
2018-11-03T06:23:57.274Z,98268.05
2018-11-03T06:26:25.343Z,98269.80
2018-11-03T06:28:53.422Z,98265.65
2018-11-03T06:31:21.497Z,98270.64
2018-11-03T06:33:49.574Z,98267.56
2018-11-03T06:36:17.660Z,98267.98
2018-11-03T06:38:45.763Z,98262.02
2018-11-03T06:41:13.894Z,98261.16
2018-11-03T06:43:41.925Z,98271.64
2018-11-03T06:46:10.026Z,98271.46
2018-11-03T06:48:38.106Z,98278.66
2018-11-03T06:51:06.217Z,98278.30
2018-11-03T06:53:34.310Z,98282.09
2018-11-03T06:56:02.352Z,98284.27
2018-11-03T06:58:30.440Z,98286.72
2018-11-03T07:00:58.512Z,98291.72
2018-11-03T07:03:26.608Z,98294.64
2018-11-03T07:05:54.702Z,98298.84
2018-11-03T07:08:22.804Z,98289.81
2018-11-03T07:10:50.865Z,98289.33
2018-11-03T07:13:19.069Z,98291.88
2018-11-03T07:15:47.135Z,98300.09
2018-11-03T07:18:15.205Z,98300.80
2018-11-03T07:20:43.320Z,98300.63
2018-11-03T07:23:11.439Z,98297.00
2018-11-03T07:25:39.517Z,98288.14
2018-11-03T07:28:07.671Z,98281.91
2018-11-03T07:30:35.736Z,98295.72
2018-11-03T07:33:03.849Z,98296.79
2018-11-03T07:35:31.970Z,98300.89
2018-11-03T07:38:00.090Z,98296.13
2018-11-03T07:40:28.174Z,98300.64
2018-11-03T07:42:56.266Z,98301.07
2018-11-03T07:45:24.373Z,98309.56
2018-11-03T07:47:52.458Z,98303.95
2018-11-03T07:50:20.719Z,98299.75
2018-11-03T07:52:48.784Z,98301.87
2018-11-03T07:55:16.865Z,98309.13
2018-11-03T07:57:45.080Z,98301.53
2018-11-03T08:00:13.956Z,98303.85
2018-11-03T08:02:42.036Z,98305.84
2018-11-03T08:05:11.683Z,98315.02
2018-11-03T08:07:39.846Z,98310.09
2018-11-03T08:10:09.442Z,98301.94
2018-11-03T08:12:37.539Z,98299.47
2018-11-03T08:15:06.369Z,98310.23
2018-11-03T08:17:34.460Z,98301.73
2018-11-03T08:20:02.555Z,98300.58
2018-11-03T08:22:30.674Z,98297.42
2018-11-03T08:24:58.785Z,98299.29
2018-11-03T08:27:26.872Z,98305.12
2018-11-03T08:29:54.962Z,98302.34
2018-11-03T08:32:23.062Z,98298.38
2018-11-03T08:34:51.140Z,98303.16
2018-11-03T08:37:19.252Z,98294.42
2018-11-03T08:39:47.435Z,98302.97
2018-11-03T08:42:15.573Z,98298.58
2018-11-03T08:44:43.653Z,98296.61
2018-11-03T08:47:11.732Z,98294.63
2018-11-03T08:49:39.813Z,98289.73
2018-11-03T08:52:07.904Z,98289.95
2018-11-03T08:54:36.178Z,98293.67
2018-11-03T08:57:04.245Z,98295.96
2018-11-03T08:59:32.442Z,98282.17
2018-11-03T09:02:00.460Z,98285.27
2018-11-03T09:04:28.582Z,98284.27
2018-11-03T09:06:56.749Z,98278.92
2018-11-03T09:09:24.794Z,98280.45
2018-11-03T09:11:52.945Z,98273.42
2018-11-03T09:14:21.112Z,98267.61
2018-11-03T09:16:49.140Z,98272.91
2018-11-03T09:19:17.261Z,98268.59
2018-11-03T09:21:45.434Z,98276.77
2018-11-03T09:24:13.432Z,98282.09
2018-11-03T09:26:41.481Z,98281.50
2018-11-03T09:29:09.586Z,98277.29
2018-11-03T09:31:37.681Z,98276.94
2018-11-03T09:34:06.138Z,98271.53
2018-11-03T09:36:34.198Z,98272.38
2018-11-03T09:39:02.419Z,98277.02
2018-11-03T09:41:30.369Z,98275.06
2018-11-03T09:43:58.440Z,98276.64
2018-11-03T09:46:26.605Z,98273.27
2018-11-03T09:48:54.669Z,98279.08
2018-11-03T09:51:22.741Z,98282.09
2018-11-03T09:53:50.823Z,98271.69
2018-11-03T09:56:18.982Z,98265.76
2018-11-03T09:58:47.103Z,98268.16
2018-11-03T10:01:15.161Z,98267.34
2018-11-03T10:03:43.242Z,98272.26
2018-11-03T10:06:11.307Z,98274.80
2018-11-03T10:08:39.385Z,98270.48
2018-11-03T10:11:07.527Z,98268.51
2018-11-03T10:13:35.630Z,98263.94
2018-11-03T10:16:04.001Z,98258.62
2018-11-03T10:18:31.979Z,98259.11
2018-11-03T10:21:00.037Z,98262.27
2018-11-03T10:23:28.124Z,98263.10
2018-11-03T10:25:57.538Z,98266.38
2018-11-03T10:28:25.670Z,98268.40
2018-11-03T10:30:53.784Z,98261.22
2018-11-03T10:33:21.926Z,98258.02
2018-11-03T10:35:50.071Z,98261.23
2018-11-03T10:38:18.182Z,98257.80
2018-11-03T10:40:46.325Z,98248.65
2018-11-03T10:43:14.409Z,98243.80
2018-11-03T10:45:42.662Z,98247.34
2018-11-03T10:48:10.760Z,98241.41
2018-11-03T10:50:38.877Z,98246.34
2018-11-03T10:53:07.177Z,98246.69
2018-11-03T10:55:35.318Z,98239.14
2018-11-03T10:58:03.405Z,98237.47
2018-11-03T11:01:35.364Z,98236.83
2018-11-03T11:04:08.799Z,98227.52
2018-11-03T11:06:42.175Z,98225.06
2018-11-03T11:09:35.649Z,98212.09
2018-11-03T11:12:10.587Z,98209.98
2018-11-03T11:14:38.709Z,98214.73
2018-11-03T11:17:06.895Z,98215.41
2018-11-03T11:19:35.020Z,98208.74
2018-11-03T11:22:03.294Z,98206.78
2018-11-03T11:24:31.526Z,98209.44
2018-11-03T11:26:59.763Z,98197.16
2018-11-03T11:29:27.945Z,98202.05
2018-11-03T11:31:56.017Z,98194.22
2018-11-03T11:34:24.119Z,98190.44
2018-11-03T11:36:52.209Z,98182.09
2018-11-03T11:39:20.310Z,98185.57
2018-11-03T11:41:48.388Z,98169.43
2018-11-03T11:44:16.518Z,98169.37
2018-11-03T11:46:44.741Z,98173.84
2018-11-03T11:49:12.832Z,98172.69
2018-11-03T11:51:40.969Z,98168.36
2018-11-03T11:54:09.090Z,98167.41
2018-11-03T11:56:37.163Z,98166.79
2018-11-03T11:59:05.332Z,98164.29
2018-11-03T12:01:33.440Z,98156.41
2018-11-03T12:04:01.525Z,98157.27
2018-11-03T12:06:29.728Z,98152.73
2018-11-03T12:08:57.765Z,98153.75
2018-11-03T12:11:25.913Z,98144.60
2018-11-03T12:13:54.004Z,98141.39
2018-11-03T12:16:22.223Z,98141.56
2018-11-03T12:18:50.240Z,98133.58
2018-11-03T12:21:18.393Z,98125.33
2018-11-03T12:23:46.487Z,98126.62
2018-11-03T12:26:14.644Z,98126.86
2018-11-03T12:28:42.722Z,98120.42
2018-11-03T12:31:10.796Z,98115.20
2018-11-03T12:33:38.915Z,98112.17
2018-11-03T12:36:07.019Z,98103.19
2018-11-03T12:38:35.135Z,98099.04
2018-11-03T12:41:03.331Z,98094.09
2018-11-03T12:43:31.323Z,98093.50
2018-11-03T12:45:59.412Z,98089.11
2018-11-03T12:48:27.590Z,98093.63
2018-11-03T12:50:55.593Z,98081.66
2018-11-03T12:53:23.716Z,98084.91
2018-11-03T12:55:51.798Z,98078.66
2018-11-03T12:58:19.914Z,98075.94
2018-11-03T13:00:48.017Z,98076.16
2018-11-03T13:03:16.146Z,98071.05
2018-11-03T13:05:44.193Z,98068.19
2018-11-03T13:08:12.265Z,98061.42
2018-11-03T13:10:40.417Z,98067.48
2018-11-03T13:13:08.517Z,98062.86
2018-11-03T13:15:36.641Z,98053.55
2018-11-03T13:18:05.233Z,98051.65
2018-11-03T13:20:33.365Z,98053.09
2018-11-03T13:23:01.452Z,98043.12
2018-11-03T13:25:29.560Z,98040.70
2018-11-03T13:27:57.661Z,98047.32
2018-11-03T13:30:25.753Z,98038.59
2018-11-03T13:32:54.125Z,98043.90
2018-11-03T13:35:24.925Z,98048.38
2018-11-03T13:37:53.288Z,98040.73
2018-11-03T13:40:22.258Z,98028.83
2018-11-03T13:42:50.326Z,98029.33
2018-11-03T13:45:18.738Z,98020.41
2018-11-03T13:47:47.253Z,98015.32
2018-11-03T13:50:16.672Z,98021.25
2018-11-03T13:52:45.869Z,98018.16
2018-11-03T13:55:13.986Z,98023.25
2018-11-03T13:57:43.164Z,98019.65
2018-11-03T14:00:13.567Z,98025.45
2018-11-03T14:02:42.548Z,98025.66
2018-11-03T14:05:11.368Z,98026.02
2018-11-03T14:07:39.516Z,98030.16
2018-11-03T14:10:10.063Z,98032.61
2018-11-03T14:12:38.162Z,98025.41
2018-11-03T14:15:07.622Z,98029.23
2018-11-03T14:17:35.783Z,98025.52
2018-11-03T14:20:04.399Z,98021.41
2018-11-03T14:22:32.525Z,98019.64
2018-11-03T14:25:00.809Z,98025.08
2018-11-03T14:27:28.916Z,98023.68
2018-11-03T14:29:57.045Z,98023.14
2018-11-03T14:32:25.121Z,98018.77
2018-11-03T14:34:53.221Z,98018.34
2018-11-03T14:37:21.424Z,98014.94
2018-11-03T14:39:49.486Z,98027.13
2018-11-03T14:42:17.569Z,98019.82
2018-11-03T14:44:45.752Z,98021.16
2018-11-03T14:47:13.751Z,98023.00
2018-11-03T14:49:41.913Z,98019.37
2018-11-03T14:52:10.000Z,98022.30
2018-11-03T14:54:38.136Z,98021.09
2018-11-03T14:57:06.225Z,98006.35
2018-11-03T14:59:34.285Z,98002.33
2018-11-03T15:02:02.380Z,98000.09
2018-11-03T15:04:30.502Z,98001.41
2018-11-03T15:06:58.647Z,97997.98
2018-11-03T15:09:26.745Z,97990.79
2018-11-03T15:11:54.859Z,97991.34
2018-11-03T15:14:23.008Z,97994.89
2018-11-03T15:16:51.003Z,97999.08
2018-11-03T15:19:19.299Z,97994.09
2018-11-03T15:21:47.310Z,97994.61
2018-11-03T15:24:15.404Z,97993.38
2018-11-03T15:26:43.497Z,97997.15
2018-11-03T15:29:11.642Z,97995.27
2018-11-03T15:31:39.748Z,98000.20
2018-11-03T15:34:07.872Z,97996.86
2018-11-03T15:36:35.962Z,97999.19
2018-11-03T15:39:04.700Z,98000.53
2018-11-03T15:41:33.156Z,97994.83
2018-11-03T15:44:01.074Z,97994.87
2018-11-03T15:46:29.175Z,97994.94
2018-11-03T15:48:57.297Z,97987.31
2018-11-03T15:51:25.378Z,97988.40
2018-11-03T15:53:53.489Z,97995.34
2018-11-03T15:56:21.578Z,97987.02
2018-11-03T15:58:49.628Z,97987.52
2018-11-03T16:01:17.707Z,97988.98
2018-11-03T16:03:45.785Z,97979.50
2018-11-03T16:06:13.944Z,97985.09
2018-11-03T16:08:42.021Z,97980.11
2018-11-03T16:11:10.189Z,97979.06
2018-11-03T16:13:38.289Z,97981.49
2018-11-03T16:16:06.427Z,97977.02
2018-11-03T16:18:34.496Z,97979.56
2018-11-03T16:21:02.817Z,97982.98
2018-11-03T16:23:30.949Z,97985.96
2018-11-03T16:25:59.242Z,97985.70
2018-11-03T16:28:27.271Z,97984.55
2018-11-03T16:30:55.392Z,97978.69
2018-11-03T16:33:23.525Z,97974.80
2018-11-03T16:35:51.682Z,97983.53
2018-11-03T16:38:19.869Z,97975.64
2018-11-03T16:40:47.897Z,97981.45
2018-11-03T16:43:15.986Z,97989.67
2018-11-03T16:45:44.272Z,97991.45
2018-11-03T16:48:12.308Z,97998.36
2018-11-03T16:50:40.418Z,97993.38
2018-11-03T16:53:08.587Z,97994.94
2018-11-03T16:55:36.881Z,97990.69
2018-11-03T16:58:05.234Z,97992.58
2018-11-03T17:00:33.293Z,97995.05
2018-11-03T17:03:01.452Z,97994.22
2018-11-03T17:05:29.548Z,97986.44
2018-11-03T17:07:57.660Z,97990.03
2018-11-03T17:10:25.769Z,97985.59
2018-11-03T17:12:54.060Z,97989.74
2018-11-03T17:15:22.078Z,97979.61
2018-11-03T17:17:50.170Z,97980.22
2018-11-03T17:20:18.254Z,97985.59
2018-11-03T17:22:46.329Z,97981.78
2018-11-03T17:25:14.558Z,97972.66
2018-11-03T17:27:42.652Z,97967.39
2018-11-03T17:30:13.317Z,97968.56
2018-11-03T17:32:41.535Z,97963.91
2018-11-03T17:35:10.087Z,97973.57
2018-11-03T17:37:39.109Z,97965.94
2018-11-03T17:40:08.188Z,97958.27
2018-11-03T17:42:36.480Z,97954.97
2018-11-03T17:45:05.476Z,97954.89
2018-11-03T17:47:33.540Z,97966.56
2018-11-03T17:50:01.690Z,97959.44
2018-11-03T17:52:29.844Z,97960.78
2018-11-03T17:54:58.177Z,97952.31
2018-11-03T17:57:26.138Z,97951.08
2018-11-03T17:59:54.287Z,97957.73
2018-11-03T18:02:22.333Z,97956.13
2018-11-03T18:04:50.420Z,97960.20
2018-11-03T18:07:18.537Z,97961.69
2018-11-03T18:09:46.629Z,97957.84
2018-11-03T18:12:14.729Z,97952.13
2018-11-03T18:14:42.806Z,97953.41
2018-11-03T18:17:10.864Z,97951.88
2018-11-03T18:19:39.008Z,97947.59
2018-11-03T18:22:07.005Z,97938.87
2018-11-03T18:24:35.065Z,97946.28
2018-11-03T18:27:03.333Z,97947.77
2018-11-03T18:29:31.402Z,97943.22
2018-11-03T18:31:59.479Z,97936.98
2018-11-03T18:34:27.595Z,97936.65
2018-11-03T18:36:55.630Z,97933.27
2018-11-03T18:39:23.765Z,97933.88
2018-11-03T18:41:51.865Z,97932.77
2018-11-03T18:44:19.986Z,97926.98
2018-11-03T18:46:48.155Z,97928.15
2018-11-03T18:49:16.155Z,97927.36
2018-11-03T18:51:44.266Z,97927.97
2018-11-03T18:54:12.357Z,97924.67
2018-11-03T18:56:40.425Z,97931.50
2018-11-03T18:59:08.525Z,97930.70
2018-11-03T19:01:36.709Z,97930.91
2018-11-03T19:04:04.827Z,97926.98
2018-11-03T19:06:32.900Z,97924.99
2018-11-03T19:09:01.066Z,97921.44
2018-11-03T19:11:29.098Z,97926.63
2018-11-03T19:13:57.228Z,97921.72
2018-11-03T19:16:25.329Z,97923.28
2018-11-03T19:18:53.438Z,97917.69
2018-11-03T19:21:21.564Z,97908.47
2018-11-03T19:23:49.832Z,97920.48
2018-11-03T19:26:17.789Z,97915.47
2018-11-03T19:28:45.869Z,97911.38
2018-11-03T19:31:13.998Z,97915.69
2018-11-03T19:33:42.101Z,97902.58
2018-11-03T19:36:10.211Z,97896.73
2018-11-03T19:38:38.446Z,97901.53
2018-11-03T19:41:06.573Z,97894.48
2018-11-03T19:43:34.866Z,97892.81
2018-11-03T19:46:03.061Z,97890.89
2018-11-03T19:48:31.170Z,97891.10
2018-11-03T19:50:59.302Z,97885.47
2018-11-03T19:53:27.378Z,97886.85
2018-11-03T19:55:55.492Z,97886.78
2018-11-03T19:58:23.576Z,97880.86
2018-11-03T20:00:51.648Z,97880.61
2018-11-03T20:03:19.796Z,97881.05
2018-11-03T20:05:47.866Z,97878.10
2018-11-03T20:08:15.993Z,97881.41
2018-11-03T20:10:44.055Z,97871.39
2018-11-03T20:13:12.182Z,97878.17
2018-11-03T20:15:40.258Z,97878.00
2018-11-03T20:18:08.576Z,97868.95
2018-11-03T20:20:36.573Z,97868.73
2018-11-03T20:23:04.684Z,97865.36
2018-11-03T20:25:32.807Z,97863.90
2018-11-03T20:28:00.914Z,97871.31
2018-11-03T20:30:28.985Z,97870.55
2018-11-03T20:32:57.100Z,97857.61
2018-11-03T20:35:25.220Z,97858.59
2018-11-03T20:37:53.310Z,97860.08
2018-11-03T20:40:21.414Z,97865.16
2018-11-03T20:42:49.577Z,97857.27
2018-11-03T20:45:17.709Z,97859.25
2018-11-03T20:47:45.839Z,97859.58
2018-11-03T20:50:14.688Z,97853.22
2018-11-03T20:52:42.832Z,97853.58
2018-11-03T20:55:11.834Z,97849.72
2018-11-03T20:57:40.289Z,97852.27
2018-11-03T21:00:10.149Z,97847.58
2018-11-03T21:02:38.291Z,97843.37
2018-11-03T21:05:07.378Z,97842.14
2018-11-03T21:07:35.616Z,97853.14
2018-11-03T21:10:03.804Z,97843.77
2018-11-03T21:12:31.943Z,97849.72
2018-11-03T21:15:00.009Z,97844.64
2018-11-03T21:17:28.192Z,97843.69
2018-11-03T21:19:56.307Z,97837.01
2018-11-03T21:22:24.495Z,97837.45
2018-11-03T21:24:52.603Z,97831.52
2018-11-03T21:27:20.660Z,97837.65
2018-11-03T21:29:48.810Z,97827.88
2018-11-03T21:32:17.096Z,97817.70
2018-11-03T21:34:45.042Z,97812.65
2018-11-03T21:37:13.123Z,97809.67
2018-11-03T21:39:41.226Z,97803.25
2018-11-03T21:42:09.334Z,97800.70
2018-11-03T21:44:37.449Z,97797.50
2018-11-03T21:47:05.737Z,97796.22
2018-11-03T21:49:33.736Z,97799.09
2018-11-03T21:52:01.973Z,97793.24
2018-11-03T21:54:30.098Z,97791.85
2018-11-03T21:56:58.213Z,97786.09
2018-11-03T21:59:26.384Z,97793.00
2018-11-03T22:01:54.473Z,97785.26
2018-11-03T22:04:22.560Z,97784.42
2018-11-03T22:06:50.649Z,97779.77
2018-11-03T22:09:19.018Z,97778.11
2018-11-03T22:11:47.110Z,97785.61
2018-11-03T22:14:15.269Z,97782.47
2018-11-03T22:16:43.332Z,97773.89
2018-11-03T22:19:11.458Z,97774.05
2018-11-03T22:21:39.590Z,97773.57
2018-11-03T22:24:07.673Z,97773.29
2018-11-03T22:26:35.961Z,97778.53
2018-11-03T22:29:04.106Z,97774.72
2018-11-03T22:31:32.259Z,97775.08
2018-11-03T22:34:00.376Z,97774.01
2018-11-03T22:36:28.496Z,97775.55
2018-11-03T22:38:57.299Z,97774.92
2018-11-03T22:41:25.440Z,97763.41
2018-11-03T22:43:53.528Z,97762.53
2018-11-03T22:46:21.642Z,97764.23
2018-11-03T22:48:49.843Z,97757.80
2018-11-03T22:51:18.093Z,97759.59
2018-11-03T22:53:46.683Z,97756.48
2018-11-03T22:56:15.240Z,97747.22
2018-11-03T22:58:43.413Z,97751.08
2018-11-03T23:01:11.585Z,97741.78
2018-11-03T23:03:39.676Z,97752.75
2018-11-03T23:06:07.783Z,97742.30
2018-11-03T23:08:35.873Z,97739.00
2018-11-03T23:11:04.027Z,97740.95
2018-11-03T23:13:32.184Z,97742.22
2018-11-03T23:16:00.300Z,97738.84
2018-11-03T23:18:28.403Z,97725.13
2018-11-03T23:20:56.508Z,97731.37
2018-11-03T23:23:24.659Z,97724.22
2018-11-03T23:25:52.778Z,97727.48
2018-11-03T23:28:20.848Z,97725.38
2018-11-03T23:30:48.954Z,97725.89
2018-11-03T23:33:17.050Z,97726.09
2018-11-03T23:35:45.179Z,97719.24
2018-11-03T23:38:13.307Z,97718.70
2018-11-03T23:40:41.419Z,97709.75
2018-11-03T23:43:10.138Z,97708.56
2018-11-03T23:45:38.216Z,97700.38
2018-11-03T23:48:06.422Z,97698.35
2018-11-03T23:50:34.541Z,97697.27
2018-11-03T23:53:02.685Z,97695.93
2018-11-03T23:55:30.832Z,97691.52
2018-11-03T23:57:58.914Z,97685.52
